M/T Goviken — 9HA2718 — position and weather

sailwx.info

Track history (hours):
 
Tides and Currents Weather Stations Pressure Air Temp Water Temp Dewpoint Dewpoint Depression Visibility Wind Speed Wind Dir Waves Ship Positions

M/T Goviken

Last reported at 2015-Mar-29 02:21 UTC. Time now 2015-Mar-30 01:05 UTC.
Position N 54°25' E 005°26'.

Length 88 m; draft 5.6 m.

Type: Ship (hazmat cat C). MMSI: 215389000.

Date/timePositionNaut miles runAvg speedWind from/ knotsBaromVisibWave heightAir tempDewpointWater temp
2015-Mar-29 02:21N 54°25' E 005°26'7 9.1
2015-Mar-29 01:33N 54°20' E 005°17'9 9.1
2015-Mar-29 00:34N 54°13' E 005°07'9 9.2
2015-Mar-28 23:33N 54°06' E 004°57'9 8.9
2015-Mar-28 22:32N 53°57' E 004°55'9 9.1
2015-Mar-28 21:30N 53°48' E 004°53'9 9.1
2015-Mar-28 20:33N 53°39' E 004°51'9 9.0
2015-Mar-28 19:34N 53°31' E 004°45'9 9.0
2015-Mar-28 18:33N 53°22' E 004°39'60 8.5
2015-Mar-28 11:28N 52°29' E 003°54'9 9.6
2015-Mar-28 10:34N 52°20' E 003°52'10 9.9
2015-Mar-28 09:34N 52°10' E 003°55'10 9.6
2015-Mar-28 08:33N 52°01' E 003°58'1110.6
2015-Mar-28 07:34N 51°55' E 004°13'2 0.1
2015-Mar-27 05:33N 51°53' E 004°14'1 1.0
2015-Mar-27 04:33N 51°54' E 004°14'7 6.7
2015-Mar-27 03:33N 51°58' E 004°06'9 9.0
2015-Mar-27 02:33N 51°59' E 003°51'3 2.8
2015-Mar-27 01:33N 52°00' E 003°47'7 6.7
2015-Mar-27 00:33N 52°06' E 003°42'1 0.9
2015-Mar-26 23:08N 52°07' E 003°41'0 0.0
2015-Mar-26 22:32N 52°07' E 003°41'0 0.0
2015-Mar-26 21:32N 52°07' E 003°41'0 0.0
2015-Mar-26 14:20N 52°08' E 003°41'0 0.0
2015-Mar-26 13:32N 52°08' E 003°41'0 0.0
2015-Mar-26 12:20N 52°08' E 003°41'0 0.0
2015-Mar-26 09:05N 52°08' E 003°41'0 0.0
2015-Mar-26 08:32N 52°08' E 003°41'0 0.0
2015-Mar-26 07:32N 52°07' E 003°41'0 0.0
2015-Mar-26 05:17N 52°07' E 003°41'0 0.1
2015-Mar-26 03:11N 52°07' E 003°41'0 0.1
2015-Mar-26 02:26N 52°07' E 003°41'0 0.0
2015-Mar-26 01:29N 52°07' E 003°41'0 0.0
2015-Mar-26 00:32N 52°07' E 003°41'0 0.0
2015-Mar-25 23:17N 52°07' E 003°41'0 0.0
2015-Mar-25 22:32N 52°07' E 003°41'0 0.1
2015-Mar-25 21:32N 52°07' E 003°41'0 0.1
2015-Mar-25 20:32N 52°07' E 003°41'2 1.2
2015-Mar-25 19:07N 52°09' E 003°44'5 8.3
2015-Mar-25 18:33N 52°13' E 003°46'9 9.4
2015-Mar-25 17:33N 52°22' E 003°49'10 9.8
2015-Mar-25 16:33N 52°32' E 003°52'1111.0
2015-Mar-25 15:33N 52°43' E 003°55'1211.6
2015-Mar-25 14:33N 52°54' E 003°59'1211.4
2015-Mar-25 13:32N 53°03' E 004°11'2711.2
2015-Mar-25 11:10N 53°26' E 004°34'710.5
2015-Mar-25 10:31N 53°32' E 004°38'3210.4
2015-Mar-25 07:25N 54°03' E 004°55'910.9
2015-Mar-25 06:33N 54°11' E 005°04'1211.2
2015-Mar-25 05:29N 54°20' E 005°17'26410.1
2015-Mar-24 03:22N 58°44' E 005°06'810.1
2015-Mar-24 02:33N 58°52' E 005°07'10 9.8
2015-Mar-24 01:33N 59°02' E 005°11'9 9.1
2015-Mar-24 00:33N 59°07' E 005°26'9 8.7
2015-Mar-23 23:33N 59°16' E 005°31'1 0.7
2015-Mar-23 22:33N 59°16' E 005°30'0 0.0
2015-Mar-23 19:18N 59°16' E 005°30'0 0.0
2015-Mar-23 04:25N 59°16' E 005°30'5 6.0
2015-Mar-23 03:33N 59°11' E 005°32'9 9.2
2015-Mar-23 02:33N 59°04' E 005°20'10 9.5
2015-Mar-23 01:33N 58°57' E 005°09'10 9.7
2015-Mar-23 00:33N 58°47' E 005°06'265 9.7
2015-Mar-21 21:06N 54°22' E 005°27'5 8.1
2015-Mar-21 20:30N 54°19' E 005°21'8 8.2
2015-Mar-21 19:33N 54°14' E 005°11'8 8.0
2015-Mar-21 18:32N 54°08' E 005°01'7 6.8
2015-Mar-21 17:33N 54°02' E 004°56'8 7.7
2015-Mar-21 16:29N 53°54' E 004°54'7 7.9
2015-Mar-21 15:33N 53°47' E 004°52'8 7.9
2015-Mar-21 14:33N 53°39' E 004°50'8 8.2
2015-Mar-21 13:33N 53°31' E 004°46'8 8.4
2015-Mar-21 12:33N 53°24' E 004°40'61 8.7
2015-Mar-21 05:31N 52°29' E 003°55'1111.4
2015-Mar-21 04:33N 52°19' E 003°52'1111.4
2015-Mar-21 03:33N 52°07' E 003°55'8 8.0
2015-Mar-21 02:33N 52°00' E 004°01'9 9.2
2015-Mar-21 01:33N 51°55' E 004°13'2 0.1
2015-Mar-20 03:33N 51°53' E 004°15'0 0.0
2015-Mar-20 01:24N 51°53' E 004°15'1 1.5
2015-Mar-20 00:33N 51°54' E 004°14'6 5.8
2015-Mar-19 23:33N 51°58' E 004°07'8 7.8
2015-Mar-19 22:33N 51°59' E 003°55'4 3.5
2015-Mar-19 21:33N 51°59' E 003°49'5 4.4
2015-Mar-19 20:24N 51°55' E 003°44'0 0.0
2015-Mar-19 19:33N 51°55' E 003°44'0 0.0
2015-Mar-19 18:27N 51°55' E 003°44'0 0.0
2015-Mar-19 17:33N 51°55' E 003°45'0 0.1
2015-Mar-19 16:27N 51°55' E 003°45'5 5.3
2015-Mar-19 15:33N 51°60' E 003°47'10 9.9
2015-Mar-19 14:32N 52°10' E 003°46'10 9.4
2015-Mar-19 13:30N 52°20' E 003°48'9 9.4
2015-Mar-19 12:33N 52°28' E 003°51'5410.8
2015-Mar-19 07:33N 53°17' E 004°28'1110.7
2015-Mar-19 06:31N 53°28' E 004°34'1010.5
2015-Mar-19 05:33N 53°37' E 004°40'1010.3
2015-Mar-19 04:32N 53°47' E 004°46'1010.6
2015-Mar-19 03:33N 53°57' E 004°52'  
Track history (hours):
 
Tides and Currents Weather Stations Pressure Air Temp Water Temp Dewpoint Dewpoint Depression Visibility Wind Speed Wind Dir Waves Ship Positions

M/T Goviken

Last reported at 2015-Mar-29 02:21 UTC. Time now 2015-Mar-30 01:05 UTC.
Position N 54°25' E 005°26'.

Length 88 m; draft 5.6 m.

Type: Ship (hazmat cat C). MMSI: 215389000.

Date/timePositionNaut miles runAvg speedWind from/ knotsBaromVisibWave heightAir tempDewpointWater temp
2015-Mar-29 02:21N 54°25' E 005°26'7 9.1
2015-Mar-29 01:33N 54°20' E 005°17'9 9.1
2015-Mar-29 00:34N 54°13' E 005°07'9 9.2
2015-Mar-28 23:33N 54°06' E 004°57'9 8.9
2015-Mar-28 22:32N 53°57' E 004°55'9 9.1
2015-Mar-28 21:30N 53°48' E 004°53'9 9.1
2015-Mar-28 20:33N 53°39' E 004°51'9 9.0
2015-Mar-28 19:34N 53°31' E 004°45'9 9.0
2015-Mar-28 18:33N 53°22' E 004°39'60 8.5
2015-Mar-28 11:28N 52°29' E 003°54'9 9.6
2015-Mar-28 10:34N 52°20' E 003°52'10 9.9
2015-Mar-28 09:34N 52°10' E 003°55'10 9.6
2015-Mar-28 08:33N 52°01' E 003°58'1110.6
2015-Mar-28 07:34N 51°55' E 004°13'2 0.1
2015-Mar-27 05:33N 51°53' E 004°14'1 1.0
2015-Mar-27 04:33N 51°54' E 004°14'7 6.7
2015-Mar-27 03:33N 51°58' E 004°06'9 9.0
2015-Mar-27 02:33N 51°59' E 003°51'3 2.8
2015-Mar-27 01:33N 52°00' E 003°47'7 6.7
2015-Mar-27 00:33N 52°06' E 003°42'1 0.9
2015-Mar-26 23:08N 52°07' E 003°41'0 0.0
2015-Mar-26 22:32N 52°07' E 003°41'0 0.0
2015-Mar-26 21:32N 52°07' E 003°41'0 0.0
2015-Mar-26 14:20N 52°08' E 003°41'0 0.0
2015-Mar-26 13:32N 52°08' E 003°41'0 0.0
2015-Mar-26 12:20N 52°08' E 003°41'0 0.0
2015-Mar-26 09:05N 52°08' E 003°41'0 0.0
2015-Mar-26 08:32N 52°08' E 003°41'0 0.0
2015-Mar-26 07:32N 52°07' E 003°41'0 0.0
2015-Mar-26 05:17N 52°07' E 003°41'0 0.1
2015-Mar-26 03:11N 52°07' E 003°41'0 0.1
2015-Mar-26 02:26N 52°07' E 003°41'0 0.0
2015-Mar-26 01:29N 52°07' E 003°41'0 0.0
2015-Mar-26 00:32N 52°07' E 003°41'0 0.0
2015-Mar-25 23:17N 52°07' E 003°41'0 0.0
2015-Mar-25 22:32N 52°07' E 003°41'0 0.1
2015-Mar-25 21:32N 52°07' E 003°41'0 0.1
2015-Mar-25 20:32N 52°07' E 003°41'2 1.2
2015-Mar-25 19:07N 52°09' E 003°44'5 8.3
2015-Mar-25 18:33N 52°13' E 003°46'9 9.4
2015-Mar-25 17:33N 52°22' E 003°49'10 9.8
2015-Mar-25 16:33N 52°32' E 003°52'1111.0
2015-Mar-25 15:33N 52°43' E 003°55'1211.6
2015-Mar-25 14:33N 52°54' E 003°59'1211.4
2015-Mar-25 13:32N 53°03' E 004°11'2711.2
2015-Mar-25 11:10N 53°26' E 004°34'710.5
2015-Mar-25 10:31N 53°32' E 004°38'3210.4
2015-Mar-25 07:25N 54°03' E 004°55'910.9
2015-Mar-25 06:33N 54°11' E 005°04'1211.2
2015-Mar-25 05:29N 54°20' E 005°17'26410.1
2015-Mar-24 03:22N 58°44' E 005°06'810.1
2015-Mar-24 02:33N 58°52' E 005°07'10 9.8
2015-Mar-24 01:33N 59°02' E 005°11'9 9.1
2015-Mar-24 00:33N 59°07' E 005°26'9 8.7
2015-Mar-23 23:33N 59°16' E 005°31'1 0.7
2015-Mar-23 22:33N 59°16' E 005°30'0 0.0
2015-Mar-23 19:18N 59°16' E 005°30'0 0.0
2015-Mar-23 04:25N 59°16' E 005°30'5 6.0
2015-Mar-23 03:33N 59°11' E 005°32'9 9.2
2015-Mar-23 02:33N 59°04' E 005°20'10 9.5
2015-Mar-23 01:33N 58°57' E 005°09'10 9.7
2015-Mar-23 00:33N 58°47' E 005°06'265 9.7
2015-Mar-21 21:06N 54°22' E 005°27'5 8.1
2015-Mar-21 20:30N 54°19' E 005°21'8 8.2
2015-Mar-21 19:33N 54°14' E 005°11'8 8.0
2015-Mar-21 18:32N 54°08' E 005°01'7 6.8
2015-Mar-21 17:33N 54°02' E 004°56'8 7.7
2015-Mar-21 16:29N 53°54' E 004°54'7 7.9
2015-Mar-21 15:33N 53°47' E 004°52'8 7.9
2015-Mar-21 14:33N 53°39' E 004°50'8 8.2
2015-Mar-21 13:33N 53°31' E 004°46'8 8.4
2015-Mar-21 12:33N 53°24' E 004°40'61 8.7
2015-Mar-21 05:31N 52°29' E 003°55'1111.4
2015-Mar-21 04:33N 52°19' E 003°52'1111.4
2015-Mar-21 03:33N 52°07' E 003°55'8 8.0
2015-Mar-21 02:33N 52°00' E 004°01'9 9.2
2015-Mar-21 01:33N 51°55' E 004°13'2 0.1
2015-Mar-20 03:33N 51°53' E 004°15'0 0.0
2015-Mar-20 01:24N 51°53' E 004°15'1 1.5
2015-Mar-20 00:33N 51°54' E 004°14'6 5.8
2015-Mar-19 23:33N 51°58' E 004°07'8 7.8
2015-Mar-19 22:33N 51°59' E 003°55'4 3.5
2015-Mar-19 21:33N 51°59' E 003°49'5 4.4
2015-Mar-19 20:24N 51°55' E 003°44'0 0.0
2015-Mar-19 19:33N 51°55' E 003°44'0 0.0
2015-Mar-19 18:27N 51°55' E 003°44'0 0.0
2015-Mar-19 17:33N 51°55' E 003°45'0 0.1
2015-Mar-19 16:27N 51°55' E 003°45'5 5.3
2015-Mar-19 15:33N 51°60' E 003°47'10 9.9
2015-Mar-19 14:32N 52°10' E 003°46'10 9.4
2015-Mar-19 13:30N 52°20' E 003°48'9 9.4
2015-Mar-19 12:33N 52°28' E 003°51'5410.8
2015-Mar-19 07:33N 53°17' E 004°28'1110.7
2015-Mar-19 06:31N 53°28' E 004°34'1010.5
2015-Mar-19 05:33N 53°37' E 004°40'1010.3
2015-Mar-19 04:32N 53°47' E 004°46'1010.6
2015-Mar-19 03:33N 53°57' E 004°52'  

Dump ship's entire track history